createdAt,value
2022-11-29T00:00:22.692Z,101331.16
2022-11-29T00:00:54.192Z,101333.34
2022-11-29T00:01:27.209Z,101331.69
2022-11-29T00:01:58.740Z,101330.06
2022-11-29T00:02:30.294Z,101321.91
2022-11-29T00:03:02.139Z,101321.91
2022-11-29T00:03:34.201Z,101324.56
2022-11-29T00:04:05.761Z,101319.91
2022-11-29T00:04:37.432Z,101315.78
2022-11-29T00:05:09.169Z,101317.00
2022-11-29T00:05:40.651Z,101318.00
2022-11-29T00:06:17.685Z,101326.94
2022-11-29T00:06:49.130Z,101316.53
2022-11-29T00:07:20.704Z,101324.28
2022-11-29T00:07:52.294Z,101325.31
2022-11-29T00:08:24.084Z,101318.19
2022-11-29T00:08:57.386Z,101324.28
2022-11-29T00:09:28.816Z,101326.94
2022-11-29T00:10:00.392Z,101325.13
2022-11-29T00:10:31.837Z,101327.94
2022-11-29T00:11:12.240Z,101324.94
2022-11-29T00:12:02.353Z,101336.16
2022-11-29T00:12:33.812Z,101328.59
2022-11-29T00:13:05.512Z,101330.22
2022-11-29T00:13:37.117Z,101333.06
2022-11-29T00:14:11.866Z,101332.44
2022-11-29T00:14:43.602Z,101326.75
2022-11-29T00:15:15.966Z,101329.59
2022-11-29T00:15:47.432Z,101327.13
2022-11-29T00:16:18.923Z,101325.13
2022-11-29T00:16:52.983Z,101324.28
2022-11-29T00:17:24.501Z,101329.59
2022-11-29T00:17:55.970Z,101322.66
2022-11-29T00:18:27.437Z,101327.94
2022-11-29T00:18:58.897Z,101328.97
2022-11-29T00:19:32.142Z,101325.31
2022-11-29T00:20:04.032Z,101322.66
2022-11-29T00:20:35.881Z,101330.78
2022-11-29T00:21:08.412Z,101328.97
2022-11-29T00:21:39.878Z,101323.47
2022-11-29T00:22:11.328Z,101331.06
2022-11-29T00:22:42.823Z,101336.16
2022-11-29T00:23:14.479Z,101325.13
2022-11-29T00:23:46.055Z,101329.59
2022-11-29T00:24:17.621Z,101326.41
2022-11-29T00:24:49.068Z,101327.59
2022-11-29T00:25:20.629Z,101331.25
2022-11-29T00:25:52.539Z,101334.53
2022-11-29T00:26:24.116Z,101332.25
2022-11-29T00:26:55.572Z,101329.59
2022-11-29T00:27:27.007Z,101336.91
2022-11-29T00:27:58.595Z,101331.25
2022-11-29T00:28:30.094Z,101330.06
2022-11-29T00:29:01.540Z,101332.50
2022-11-29T00:29:33.026Z,101332.16
2022-11-29T00:30:05.349Z,101327.22
2022-11-29T00:30:36.859Z,101330.69
2022-11-29T00:31:17.927Z,101329.22
2022-11-29T00:31:49.437Z,101333.88
2022-11-29T00:32:20.880Z,101336.53
2022-11-29T00:32:52.526Z,101335.53
2022-11-29T00:33:24.001Z,101332.88
2022-11-29T00:33:56.855Z,101334.72
2022-11-29T00:34:28.551Z,101332.88
2022-11-29T00:35:02.022Z,101331.88
2022-11-29T00:35:35.637Z,101331.06
2022-11-29T00:36:07.529Z,101341.66
2022-11-29T00:36:39.950Z,101344.31
2022-11-29T00:37:11.552Z,101340.19
2022-11-29T00:37:42.988Z,101348.97
2022-11-29T00:38:14.444Z,101343.47
2022-11-29T00:38:46.281Z,101341.84
2022-11-29T00:39:17.838Z,101342.28
2022-11-29T00:39:49.274Z,101347.78
2022-11-29T00:40:20.704Z,101345.13
2022-11-29T00:40:52.633Z,101340.66
2022-11-29T00:41:24.360Z,101339.81
2022-11-29T00:41:55.942Z,101347.59
2022-11-29T00:42:27.420Z,101338.63
2022-11-29T00:42:58.869Z,101340.28
2022-11-29T00:43:30.320Z,101346.41
2022-11-29T00:44:01.803Z,101346.41
2022-11-29T00:44:33.410Z,101347.41
2022-11-29T00:45:05.382Z,101344.75
2022-11-29T00:45:37.095Z,101347.22
2022-11-29T00:46:09.398Z,101345.22
2022-11-29T00:46:40.934Z,101351.78
2022-11-29T00:47:12.471Z,101350.31
2022-11-29T00:47:43.972Z,101349.69
2022-11-29T00:48:15.433Z,101350.50
2022-11-29T00:48:47.092Z,101355.00
2022-11-29T00:49:18.557Z,101348.69
2022-11-29T00:49:50.061Z,101350.31
2022-11-29T00:50:21.537Z,101357.09
2022-11-29T00:50:53.273Z,101348.31
2022-11-29T00:51:24.756Z,101351.59
2022-11-29T00:51:56.214Z,101350.59
2022-11-29T00:52:27.834Z,101353.25
2022-11-29T00:52:59.283Z,101350.16
2022-11-29T00:53:30.822Z,101347.69
2022-11-29T00:54:02.418Z,101358.28
2022-11-29T00:54:33.919Z,101355.00
2022-11-29T00:55:05.929Z,101352.97
2022-11-29T00:55:37.433Z,101358.28
2022-11-29T00:56:09.308Z,101349.31
2022-11-29T00:56:40.852Z,101350.97
2022-11-29T00:57:12.297Z,101349.69
2022-11-29T00:57:43.809Z,101351.69
2022-11-29T00:58:15.305Z,101353.34
2022-11-29T00:58:48.516Z,101349.22
2022-11-29T00:59:20.069Z,101344.75
2022-11-29T00:59:51.529Z,101347.41
2022-11-29T01:00:23.175Z,101350.44
2022-11-29T01:00:54.871Z,101353.06
2022-11-29T01:01:26.627Z,101352.88
2022-11-29T01:01:58.160Z,101345.56
2022-11-29T01:02:29.843Z,101348.41
2022-11-29T01:03:01.993Z,101348.41
2022-11-29T01:03:33.604Z,101347.13
2022-11-29T01:04:05.295Z,101341.84
2022-11-29T01:04:36.754Z,101344.31
2022-11-29T01:05:08.470Z,101341.84
2022-11-29T01:05:40.335Z,101347.13
2022-11-29T01:06:14.125Z,101338.53
2022-11-29T01:06:45.778Z,101341.00
2022-11-29T01:07:17.407Z,101336.72
2022-11-29T01:07:49.062Z,101343.84
2022-11-29T01:08:20.656Z,101343.84
2022-11-29T01:08:52.145Z,101336.53
2022-11-29T01:09:23.769Z,101337.19
2022-11-29T01:09:55.192Z,101334.53
2022-11-29T01:10:27.080Z,101334.91
2022-11-29T01:11:11.330Z,101338.53
2022-11-29T01:11:42.936Z,101345.50
2022-11-29T01:12:14.463Z,101341.00
2022-11-29T01:12:45.942Z,101346.31
2022-11-29T01:13:17.619Z,101341.84
2022-11-29T01:13:51.006Z,101343.84
2022-11-29T01:14:22.722Z,101341.38
2022-11-29T01:14:54.264Z,101343.47
2022-11-29T01:15:25.874Z,101345.50
2022-11-29T01:15:58.201Z,101346.81
2022-11-29T01:16:31.068Z,101346.00
2022-11-29T01:17:02.759Z,101352.13
2022-11-29T01:17:39.121Z,101348.66
2022-11-29T01:18:10.608Z,101351.16
2022-11-29T01:18:42.904Z,101350.16
2022-11-29T01:19:14.361Z,101353.13
2022-11-29T01:19:50.652Z,101348.84
2022-11-29T01:20:22.586Z,101349.19
2022-11-29T01:20:58.325Z,101351.84
2022-11-29T01:21:29.972Z,101353.50
2022-11-29T01:22:01.435Z,101353.13
2022-11-29T01:22:34.439Z,101354.69
2022-11-29T01:23:05.944Z,101356.31
2022-11-29T01:23:38.090Z,101358.16
2022-11-29T01:24:09.625Z,101351.03
2022-11-29T01:24:41.477Z,101355.50
2022-11-29T01:25:13.609Z,101360.81
2022-11-29T01:25:45.065Z,101355.69
2022-11-29T01:26:19.215Z,101355.88
2022-11-29T01:26:50.657Z,101357.50
2022-11-29T01:27:22.233Z,101361.81
2022-11-29T01:27:54.388Z,101359.63
2022-11-29T01:28:26.492Z,101362.44
2022-11-29T01:28:58.662Z,101365.28
2022-11-29T01:29:30.144Z,101363.44
2022-11-29T01:30:02.471Z,101357.28
2022-11-29T01:30:34.179Z,101364.09
2022-11-29T01:31:10.816Z,101359.78
2022-11-29T01:31:42.332Z,101362.81
2022-11-29T01:32:13.936Z,101355.13
2022-11-29T01:32:45.399Z,101360.44
2022-11-29T01:33:16.905Z,101362.44
2022-11-29T01:33:48.526Z,101361.44
2022-11-29T01:34:19.977Z,101361.44
2022-11-29T01:34:51.446Z,101363.28
2022-11-29T01:35:22.976Z,101359.97
2022-11-29T01:35:54.960Z,101360.81
2022-11-29T01:36:27.014Z,101359.97
2022-11-29T01:36:58.494Z,101364.09
2022-11-29T01:37:30.051Z,101359.63
2022-11-29T01:38:01.549Z,101360.44
2022-11-29T01:38:33.165Z,101365.75
2022-11-29T01:39:05.649Z,101364.09
2022-11-29T01:39:37.349Z,101361.91
2022-11-29T01:40:09.195Z,101363.09
2022-11-29T01:40:40.693Z,101364.91
2022-11-29T01:41:15.789Z,101368.69
2022-11-29T01:41:47.296Z,101369.50
2022-11-29T01:42:18.928Z,101372.63
2022-11-29T01:42:50.405Z,101375.28
2022-11-29T01:43:22.465Z,101368.31
2022-11-29T01:43:55.160Z,101370.34
2022-11-29T01:44:26.759Z,101369.69
2022-11-29T01:45:23.004Z,101372.16
2022-11-29T01:45:55.085Z,101377.09
2022-11-29T01:46:29.245Z,101376.91
2022-11-29T01:47:00.860Z,101378.56
2022-11-29T01:47:32.401Z,101380.22
2022-11-29T01:48:04.346Z,101388.34
2022-11-29T01:48:35.809Z,101379.38
2022-11-29T01:49:16.254Z,101389.16
2022-11-29T01:49:48.694Z,101387.50
2022-11-29T01:50:20.518Z,101385.69
2022-11-29T01:50:54.524Z,101380.38
2022-11-29T01:51:27.165Z,101381.84
2022-11-29T01:52:00.363Z,101383.03
2022-11-29T01:52:32.918Z,101381.22
2022-11-29T01:53:04.869Z,101383.84
2022-11-29T01:53:36.324Z,101389.16
2022-11-29T01:54:09.167Z,101389.34
2022-11-29T01:54:46.873Z,101389.16
2022-11-29T01:55:19.016Z,101381.56
2022-11-29T01:55:54.126Z,101389.06
2022-11-29T01:56:25.974Z,101386.22
2022-11-29T01:56:58.821Z,101382.59
2022-11-29T01:57:31.078Z,101391.16
2022-11-29T01:58:04.084Z,101394.81
2022-11-29T01:58:35.913Z,101390.34
2022-11-29T01:59:10.167Z,101392.00
2022-11-29T01:59:46.278Z,101385.03
2022-11-29T02:00:19.873Z,101398.94
2022-11-29T02:00:51.336Z,101394.47
2022-11-29T02:01:23.301Z,101395.19
2022-11-29T02:02:06.085Z,101397.84
2022-11-29T02:02:52.458Z,101394.50
2022-11-29T02:03:24.021Z,101400.81
2022-11-29T02:03:55.713Z,101397.97
2022-11-29T02:04:27.233Z,101393.44
2022-11-29T02:04:59.809Z,101395.66
2022-11-29T02:05:32.718Z,101396.47
2022-11-29T02:06:05.178Z,101403.28
2022-11-29T02:06:37.203Z,101394.50
2022-11-29T02:07:09.159Z,101398.16
2022-11-29T02:07:43.081Z,101389.22
2022-11-29T02:08:16.926Z,101393.53
2022-11-29T02:08:48.389Z,101399.16
2022-11-29T02:09:21.797Z,101394.88
2022-11-29T02:09:53.246Z,101397.97
2022-11-29T02:10:49.647Z,101403.28
2022-11-29T02:11:46.341Z,101400.81
2022-11-29T02:12:26.755Z,101394.22
2022-11-29T02:13:04.965Z,101392.78
2022-11-29T02:14:10.504Z,101395.41
2022-11-29T02:15:06.350Z,101398.25
2022-11-29T02:15:46.701Z,101394.59
2022-11-29T02:16:33.217Z,101391.50
2022-11-29T02:17:13.895Z,101393.31
2022-11-29T02:18:14.797Z,101391.66
2022-11-29T02:18:55.828Z,101389.84
2022-11-29T02:19:27.203Z,101395.97
2022-11-29T02:20:06.140Z,101402.91
2022-11-29T02:20:42.718Z,101395.78
2022-11-29T02:21:41.970Z,101394.31
2022-11-29T02:22:19.480Z,101396.78
2022-11-29T02:22:57.618Z,101401.53
2022-11-29T02:23:39.445Z,101392.22
2022-11-29T02:24:29.476Z,101397.97
2022-11-29T02:25:24.623Z,101395.81
2022-11-29T02:26:23.925Z,101394.69
2022-11-29T02:27:04.509Z,101396.88
2022-11-29T02:27:51.150Z,101388.88
2022-11-29T02:28:52.043Z,101397.16
2022-11-29T02:29:53.853Z,101389.22
2022-11-29T02:30:25.257Z,101391.22
2022-11-29T02:30:59.150Z,101384.91
2022-11-29T02:31:58.927Z,101391.53
2022-11-29T02:33:02.269Z,101400.47
2022-11-29T02:33:47.109Z,101391.75
2022-11-29T02:34:33.626Z,101394.59
2022-11-29T02:35:05.113Z,101394.13
2022-11-29T02:35:48.822Z,101395.31
2022-11-29T02:36:32.562Z,101396.97
2022-11-29T02:37:22.641Z,101390.03
2022-11-29T02:38:23.290Z,101390.84
2022-11-29T02:39:09.949Z,101392.94
2022-11-29T02:40:04.880Z,101388.28
2022-11-29T02:40:51.370Z,101388.84
2022-11-29T02:41:59.744Z,101386.00
2022-11-29T02:42:56.515Z,101388.94
2022-11-29T02:43:57.981Z,101388.47
2022-11-29T02:44:55.998Z,101390.56
2022-11-29T02:45:36.196Z,101385.75
2022-11-29T02:46:07.642Z,101392.13
2022-11-29T02:46:49.176Z,101390.94
2022-11-29T02:47:36.965Z,101393.88
2022-11-29T02:48:27.591Z,101395.88
2022-11-29T02:49:31.737Z,101394.59
2022-11-29T02:50:21.453Z,101401.34
2022-11-29T02:51:13.709Z,101401.06
2022-11-29T02:51:55.123Z,101402.97
2022-11-29T02:52:32.707Z,101404.09
2022-11-29T02:53:11.657Z,101402.25
2022-11-29T02:54:13.881Z,101407.09
2022-11-29T02:54:50.386Z,101407.09
2022-11-29T02:55:35.018Z,101410.56
2022-11-29T02:56:34.428Z,101405.81
2022-11-29T02:57:23.185Z,101414.41
2022-11-29T02:58:19.471Z,101411.56
2022-11-29T02:59:11.712Z,101405.19
2022-11-29T02:59:54.858Z,101408.91
2022-11-29T03:00:26.630Z,101409.91
2022-11-29T03:01:05.404Z,101413.41
2022-11-29T03:01:41.897Z,101413.22
2022-11-29T03:02:39.966Z,101411.22
2022-11-29T03:03:18.404Z,101410.50
2022-11-29T03:03:56.456Z,101413.25
2022-11-29T03:05:05.390Z,101412.84
2022-11-29T03:06:02.084Z,101412.84
2022-11-29T03:06:52.118Z,101413.69
2022-11-29T03:07:52.965Z,101408.91
2022-11-29T03:08:32.254Z,101410.94
2022-11-29T03:09:22.031Z,101411.94
2022-11-29T03:10:08.146Z,101418.03
2022-11-29T03:11:17.239Z,101419.50
2022-11-29T03:11:55.968Z,101415.41
2022-11-29T03:12:38.438Z,101427.34
2022-11-29T03:13:20.570Z,101429.47
2022-11-29T03:14:14.685Z,101425.53
2022-11-29T03:15:12.453Z,101421.22
2022-11-29T03:15:59.167Z,101429.81
2022-11-29T03:17:12.993Z,101421.88
2022-11-29T03:18:10.612Z,101432.41
2022-11-29T03:18:56.276Z,101430.00
2022-11-29T03:19:55.190Z,101433.13
2022-11-29T03:20:36.177Z,101428.28
2022-11-29T03:21:09.012Z,101430.66
2022-11-29T03:22:03.575Z,101431.81
2022-11-29T03:22:47.933Z,101432.75
2022-11-29T03:23:32.229Z,101430.75
2022-11-29T03:24:08.932Z,101438.22
2022-11-29T03:24:54.951Z,101431.22
2022-11-29T03:25:38.601Z,101434.88
2022-11-29T03:26:24.890Z,101436.41
2022-11-29T03:27:02.114Z,101438.59
2022-11-29T03:28:01.468Z,101440.59
2022-11-29T03:28:37.433Z,101436.75
2022-11-29T03:29:29.755Z,101436.75
2022-11-29T03:30:04.513Z,101438.59
2022-11-29T03:30:38.376Z,101445.34
2022-11-29T03:31:18.557Z,101436.88
2022-11-29T03:32:07.497Z,101436.41
2022-11-29T03:32:47.770Z,101437.13
2022-11-29T03:33:35.969Z,101440.78
2022-11-29T03:34:45.851Z,101445.19
2022-11-29T03:35:35.976Z,101444.63
2022-11-29T03:36:07.671Z,101446.53
2022-11-29T03:36:45.557Z,101451.81
2022-11-29T03:37:43.130Z,101452.50
2022-11-29T03:38:43.112Z,101448.84
2022-11-29T03:39:19.542Z,101450.50
2022-11-29T03:39:53.480Z,101444.56
2022-11-29T03:40:46.777Z,101450.22
2022-11-29T03:41:25.768Z,101445.09
2022-11-29T03:42:03.855Z,101449.28
2022-11-29T03:42:43.249Z,101456.94
2022-11-29T03:43:30.774Z,101445.38
2022-11-29T03:44:11.518Z,101467.91
2022-11-29T03:44:56.408Z,101453.66
2022-11-29T03:45:33.837Z,101449.34
2022-11-29T03:46:14.724Z,101452.66
2022-11-29T03:47:09.093Z,101453.59
2022-11-29T03:47:49.219Z,101454.34
2022-11-29T03:49:01.731Z,101449.66
2022-11-29T03:49:38.015Z,101453.28
2022-11-29T03:50:20.694Z,101452.00
2022-11-29T03:50:55.350Z,101447.34
2022-11-29T03:51:51.773Z,101451.47
2022-11-29T03:52:29.389Z,101446.06
2022-11-29T03:53:14.853Z,101449.41
2022-11-29T03:53:52.157Z,101445.72
2022-11-29T03:54:32.650Z,101449.09
2022-11-29T03:55:23.063Z,101451.47
2022-11-29T03:56:00.504Z,101445.72
2022-11-29T03:56:34.555Z,101460.78
2022-11-29T03:57:06.972Z,101447.53
2022-11-29T03:57:50.214Z,101453.84
2022-11-29T03:58:32.589Z,101454.31
2022-11-29T03:59:12.114Z,101448.66
2022-11-29T03:59:59.961Z,101447.00
2022-11-29T04:00:42.986Z,101450.19
2022-11-29T04:01:50.113Z,101455.13
2022-11-29T04:03:09.621Z,101457.66
2022-11-29T04:04:00.471Z,101449.81
2022-11-29T04:04:50.364Z,101456.31
2022-11-29T04:05:21.860Z,101454.47
2022-11-29T04:06:01.147Z,101465.25
2022-11-29T04:07:00.060Z,101459.31
2022-11-29T04:07:47.159Z,101457.47
2022-11-29T04:08:43.085Z,101461.78
2022-11-29T04:09:46.749Z,101462.97
2022-11-29T04:10:27.192Z,101456.97
2022-11-29T04:11:55.820Z,101465.94
2022-11-29T04:13:02.463Z,101467.94
2022-11-29T04:14:11.277Z,101470.56
2022-11-29T04:15:04.238Z,101472.88
2022-11-29T04:15:44.634Z,101472.88
2022-11-29T04:16:32.901Z,101469.94
2022-11-29T04:17:22.198Z,101466.28
2022-11-29T04:18:20.458Z,101465.00
2022-11-29T04:19:15.740Z,101471.09
2022-11-29T04:20:24.789Z,101467.28
2022-11-29T04:21:14.818Z,101468.91
2022-11-29T04:22:15.480Z,101462.78
2022-11-29T04:23:18.645Z,101473.22
2022-11-29T04:24:25.652Z,101470.91
2022-11-29T04:25:21.882Z,101474.06
2022-11-29T04:26:24.061Z,101481.22
2022-11-29T04:27:13.739Z,101477.22
2022-11-29T04:27:49.522Z,101479.16
2022-11-29T04:28:45.090Z,101479.69
2022-11-29T04:29:26.858Z,101477.22
2022-11-29T04:30:07.743Z,101477.59
2022-11-29T04:31:06.909Z,101473.47
2022-11-29T04:32:03.448Z,101481.59
2022-11-29T04:33:17.150Z,101478.75
2022-11-29T04:34:03.767Z,101478.88
2022-11-29T04:34:58.855Z,101479.53
2022-11-29T04:36:05.713Z,101487.09
2022-11-29T04:36:54.099Z,101480.22
2022-11-29T04:37:31.642Z,101482.41
2022-11-29T04:38:05.748Z,101476.28
2022-11-29T04:38:42.838Z,101480.28
2022-11-29T04:39:36.481Z,101485.94
2022-11-29T04:40:32.564Z,101482.66
2022-11-29T04:41:20.356Z,101482.88
2022-11-29T04:42:25.861Z,101479.59
2022-11-29T04:43:34.549Z,101481.31
2022-11-29T04:44:09.383Z,101479.81
2022-11-29T04:44:58.914Z,101486.28
2022-11-29T04:45:48.753Z,101488.41
2022-11-29T04:46:46.679Z,101489.22
2022-11-29T04:47:38.497Z,101482.66
2022-11-29T04:48:28.050Z,101490.41
2022-11-29T04:49:11.215Z,101493.81
2022-11-29T04:50:18.334Z,101489.94
2022-11-29T04:51:33.977Z,101494.19
2022-11-29T04:52:24.821Z,101494.66
2022-11-29T04:53:08.811Z,101489.00
2022-11-29T04:53:49.172Z,101494.03
2022-11-29T04:54:48.699Z,101493.72
2022-11-29T04:55:43.128Z,101484.28
2022-11-29T04:56:43.309Z,101494.22
2022-11-29T04:57:42.130Z,101491.94
2022-11-29T04:58:29.615Z,101489.72
2022-11-29T04:59:19.464Z,101490.28
2022-11-29T04:59:57.251Z,101494.28
2022-11-29T05:00:31.585Z,101495.00
2022-11-29T05:01:23.462Z,101496.28
2022-11-29T05:02:13.341Z,101494.16
2022-11-29T05:03:02.096Z,101493.81
2022-11-29T05:03:41.853Z,101498.66
2022-11-29T05:04:28.431Z,101498.81
2022-11-29T05:05:13.997Z,101493.16
2022-11-29T05:05:51.570Z,101494.81
2022-11-29T05:06:29.803Z,101497.47
2022-11-29T05:07:27.776Z,101489.06
2022-11-29T05:08:20.877Z,101501.81
2022-11-29T05:09:22.216Z,101497.81
2022-11-29T05:09:56.617Z,101500.28
2022-11-29T05:10:52.934Z,101499.94
2022-11-29T05:11:43.050Z,101504.22
2022-11-29T05:12:18.643Z,101508.53
2022-11-29T05:13:03.233Z,101505.34
2022-11-29T05:13:56.045Z,101506.06
2022-11-29T05:14:49.820Z,101504.75
2022-11-29T05:15:29.987Z,101510.41
2022-11-29T05:16:21.793Z,101503.28
2022-11-29T05:17:20.220Z,101510.06
2022-11-29T05:18:10.302Z,101502.94
2022-11-29T05:19:00.367Z,101499.81
2022-11-29T05:20:05.895Z,101509.72
2022-11-29T05:20:49.634Z,101515.69
2022-11-29T05:21:36.465Z,101512.06
2022-11-29T05:22:29.142Z,101513.69
2022-11-29T05:23:12.276Z,101508.28
2022-11-29T05:24:20.524Z,101515.53
2022-11-29T05:25:14.087Z,101518.06
2022-11-29T05:25:54.480Z,101526.00
2022-11-29T05:26:27.448Z,101514.88
2022-11-29T05:27:25.697Z,101522.16
2022-11-29T05:28:10.252Z,101523.47
2022-11-29T05:29:03.547Z,101533.41
2022-11-29T05:29:43.398Z,101530.94
2022-11-29T05:30:20.865Z,101530.94
2022-11-29T05:31:23.078Z,101532.28
2022-11-29T05:32:21.520Z,101526.00
2022-11-29T05:33:14.047Z,101536.59
2022-11-29T05:33:59.374Z,101535.59
2022-11-29T05:34:43.680Z,101535.94
2022-11-29T05:35:37.181Z,101526.59
2022-11-29T05:36:29.578Z,101538.88
2022-11-29T05:37:25.926Z,101531.94
2022-11-29T05:37:57.527Z,101534.94
2022-11-29T05:39:03.634Z,101535.28
2022-11-29T05:39:42.134Z,101530.66
2022-11-29T05:40:13.773Z,101534.94
2022-11-29T05:41:19.342Z,101540.88
2022-11-29T05:42:02.627Z,101537.28
2022-11-29T05:42:45.875Z,101528.34
2022-11-29T05:43:52.806Z,101532.34
2022-11-29T05:44:43.456Z,101538.81
2022-11-29T05:45:44.437Z,101537.28
2022-11-29T05:46:30.208Z,101534.34
2022-11-29T05:47:03.428Z,101538.47
2022-11-29T05:47:51.850Z,101541.28
2022-11-29T05:48:45.410Z,101532.00
2022-11-29T05:49:18.886Z,101541.25
2022-11-29T05:50:07.586Z,101542.72
2022-11-29T05:50:55.129Z,101541.88
2022-11-29T05:51:29.593Z,101546.84
2022-11-29T05:52:22.571Z,101542.56
2022-11-29T05:53:03.062Z,101544.22
2022-11-29T05:53:43.197Z,101549.53
2022-11-29T05:54:28.215Z,101551.81
2022-11-29T05:55:16.849Z,101548.34
2022-11-29T05:56:12.777Z,101550.53
2022-11-29T05:57:01.147Z,101553.00
2022-11-29T05:57:54.012Z,101543.88
2022-11-29T05:58:43.793Z,101548.19
2022-11-29T05:59:22.219Z,101548.00
2022-11-29T05:59:53.997Z,101550.81
2022-11-29T06:00:29.265Z,101553.66
2022-11-29T06:01:16.691Z,101550.22
2022-11-29T06:02:15.742Z,101552.69
2022-11-29T06:03:10.392Z,101552.34
2022-11-29T06:04:04.473Z,101554.81
2022-11-29T06:04:57.687Z,101565.41
2022-11-29T06:05:37.440Z,101564.22
2022-11-29T06:06:16.750Z,101558.94
2022-11-29T06:06:57.222Z,101557.63
2022-11-29T06:07:31.531Z,101557.16
2022-11-29T06:08:26.007Z,101555.16
2022-11-29T06:09:05.903Z,101558.50
2022-11-29T06:09:49.947Z,101557.84
2022-11-29T06:10:25.024Z,101555.84
2022-11-29T06:11:14.401Z,101564.78
2022-11-29T06:11:49.282Z,101556.53
2022-11-29T06:12:22.869Z,101554.69
2022-11-29T06:13:10.893Z,101560.16
2022-11-29T06:14:01.443Z,101560.16
2022-11-29T06:14:41.821Z,101561.75
2022-11-29T06:15:19.248Z,101560.44
2022-11-29T06:16:17.803Z,101569.22
2022-11-29T06:17:13.843Z,101568.03
2022-11-29T06:18:27.401Z,101566.41
2022-11-29T06:19:23.784Z,101563.56
2022-11-29T06:20:13.058Z,101565.75
2022-11-29T06:21:14.742Z,101570.22
2022-11-29T06:21:57.971Z,101563.06
2022-11-29T06:23:03.135Z,101568.34
2022-11-29T06:23:49.522Z,101568.03
2022-11-29T06:24:37.791Z,101572.34
2022-11-29T06:25:37.642Z,101564.09
2022-11-29T06:26:44.825Z,101575.81
2022-11-29T06:27:24.923Z,101573.34
2022-11-29T06:28:17.801Z,101575.00
2022-11-29T06:29:07.813Z,101574.34
2022-11-29T06:29:52.612Z,101571.88
2022-11-29T06:30:27.756Z,101578.16
2022-11-29T06:31:03.473Z,101579.97
2022-11-29T06:31:44.032Z,101573.38
2022-11-29T06:32:40.258Z,101576.66
2022-11-29T06:33:29.607Z,101581.63
2022-11-29T06:34:07.393Z,101577.16
2022-11-29T06:34:48.598Z,101579.28
2022-11-29T06:35:48.797Z,101577.63
2022-11-29T06:36:31.942Z,101577.28
2022-11-29T06:37:20.345Z,101575.78
2022-11-29T06:37:53.888Z,101577.41
2022-11-29T06:38:28.242Z,101578.28
2022-11-29T06:38:59.865Z,101581.94
2022-11-29T06:39:31.559Z,101578.94
2022-11-29T06:40:04.408Z,101587.69
2022-11-29T06:40:36.072Z,101580.41
2022-11-29T06:41:14.725Z,101589.00
2022-11-29T06:41:47.095Z,101580.94
2022-11-29T06:42:18.644Z,101584.28
2022-11-29T06:42:50.361Z,101589.53
2022-11-29T06:43:22.052Z,101589.03
2022-11-29T06:43:53.825Z,101586.56
2022-11-29T06:44:25.618Z,101590.22
2022-11-29T06:44:57.208Z,101589.88
2022-11-29T06:45:28.956Z,101587.22
2022-11-29T06:46:14.614Z,101591.22
2022-11-29T06:46:53.528Z,101588.22
2022-11-29T06:47:30.812Z,101596.81
2022-11-29T06:48:04.576Z,101595.00
2022-11-29T06:49:02.482Z,101599.47
2022-11-29T06:49:40.029Z,101594.81
2022-11-29T06:50:20.059Z,101591.53
2022-11-29T06:51:06.026Z,101600.31
2022-11-29T06:52:02.445Z,101597.97
2022-11-29T06:53:25.237Z,101610.38
2022-11-29T06:54:05.603Z,101609.25
2022-11-29T06:54:52.115Z,101609.78
2022-11-29T06:55:57.684Z,101619.16
2022-11-29T06:56:36.157Z,101607.75
2022-11-29T06:57:24.826Z,101614.34
2022-11-29T06:58:12.693Z,101609.72
2022-11-29T06:58:52.024Z,101618.00
2022-11-29T06:59:35.742Z,101620.66
2022-11-29T07:00:20.690Z,101618.84
2022-11-29T07:01:14.443Z,101617.03
2022-11-29T07:02:04.323Z,101618.16
2022-11-29T07:02:55.053Z,101619.13
2022-11-29T07:03:32.981Z,101618.81
2022-11-29T07:04:28.933Z,101624.78
2022-11-29T07:05:15.685Z,101624.28
2022-11-29T07:05:47.476Z,101633.88
2022-11-29T07:06:30.111Z,101632.56
2022-11-29T07:07:01.889Z,101630.06
2022-11-29T07:07:35.132Z,101627.91
2022-11-29T07:08:12.221Z,101628.91
2022-11-29T07:08:43.893Z,101632.56
2022-11-29T07:09:18.420Z,101628.09
2022-11-29T07:09:51.706Z,101634.03
2022-11-29T07:10:24.025Z,101634.84
2022-11-29T07:10:56.113Z,101623.09
2022-11-29T07:11:28.157Z,101635.50
2022-11-29T07:12:00.168Z,101629.88
2022-11-29T07:12:31.922Z,101640.47
2022-11-29T07:13:03.724Z,101640.63
2022-11-29T07:13:35.566Z,101639.28
2022-11-29T07:14:07.434Z,101644.59
2022-11-29T07:14:39.208Z,101643.75
2022-11-29T07:15:18.581Z,101640.81
2022-11-29T07:16:33.913Z,101641.16
2022-11-29T07:17:24.073Z,101639.63
2022-11-29T07:18:02.353Z,101635.34
2022-11-29T07:18:48.657Z,101637.97
2022-11-29T07:19:43.880Z,101638.47
2022-11-29T07:20:47.549Z,101640.28
2022-11-29T07:21:39.760Z,101639.28
2022-11-29T07:22:33.602Z,101636.16
2022-11-29T07:23:19.544Z,101640.47
2022-11-29T07:24:02.505Z,101640.28
2022-11-29T07:24:49.133Z,101633.19
2022-11-29T07:25:26.308Z,101639.28
2022-11-29T07:26:16.547Z,101632.88
2022-11-29T07:26:59.697Z,101636.47
2022-11-29T07:27:37.034Z,101636.50
2022-11-29T07:28:35.230Z,101635.50
2022-11-29T07:29:24.688Z,101647.75
2022-11-29T07:30:05.208Z,101644.94
2022-11-29T07:31:05.950Z,101649.56
2022-11-29T07:31:52.426Z,101650.72
2022-11-29T07:32:47.306Z,101657.16
2022-11-29T07:34:03.418Z,101654.06
2022-11-29T07:34:59.405Z,101659.16
2022-11-29T07:35:51.467Z,101657.81
2022-11-29T07:36:45.671Z,101652.69
2022-11-29T07:37:22.743Z,101659.00
2022-11-29T07:38:11.929Z,101654.03
2022-11-29T07:38:52.416Z,101658.81
2022-11-29T07:39:41.988Z,101659.16
2022-11-29T07:40:16.155Z,101668.88
2022-11-29T07:40:53.821Z,101664.28
2022-11-29T07:41:40.482Z,101660.63
2022-11-29T07:42:34.275Z,101659.00
2022-11-29T07:43:27.200Z,101659.34
2022-11-29T07:44:34.953Z,101664.63
2022-11-29T07:45:21.711Z,101666.09
2022-11-29T07:45:54.610Z,101666.94
2022-11-29T07:46:28.456Z,101664.94
2022-11-29T07:46:59.977Z,101676.88
2022-11-29T07:47:35.672Z,101667.41
2022-11-29T07:48:10.929Z,101667.59
2022-11-29T07:48:42.609Z,101667.59
2022-11-29T07:49:14.085Z,101670.53
2022-11-29T07:49:45.569Z,101671.53
2022-11-29T07:50:17.296Z,101667.59
2022-11-29T07:50:48.764Z,101666.28
2022-11-29T07:51:20.271Z,101668.59
2022-11-29T07:51:51.933Z,101676.88
2022-11-29T07:52:23.395Z,101665.75
2022-11-29T07:52:56.035Z,101673.88
2022-11-29T07:53:28.916Z,101663.47
2022-11-29T07:54:00.377Z,101673.06
2022-11-29T07:54:31.845Z,101672.88
2022-11-29T07:55:05.025Z,101676.03
2022-11-29T07:55:37.330Z,101671.22
2022-11-29T07:56:12.568Z,101674.88
2022-11-29T07:56:44.205Z,101677.34